Time;durP1;ratioP1;P1;durP2;ratioP2;P2;SDS_P1;SDS_P2;PMS_P1;PMS_P2;Temp;Humidity;BMP_temperature;BMP_pressure;BME280_temperature;BME280_humidity;BME280_pressure;Samples;Min_cycle;Max_cycle;Signal;HPM_P1;HPM_P2
2022/11/09 00:01:23;;;;;;;36.05;17.90;;;;;;;;;;6217140;23;20008;-77
2022/11/09 00:03:56;;;;;;;34.38;17.23;;;;;;;;;;6244010;23;20420;-76
2022/11/09 00:06:23;;;;;;;34.47;17.92;;;;;;;;;;6251808;23;20028;-78
2022/11/09 00:08:48;;;;;;;34.95;17.58;;;;;;;;;;6191271;23;20091;-78
2022/11/09 00:11:14;;;;;;;34.28;16.70;;;;;;;;;;6192154;23;20008;-78
2022/11/09 00:13:40;;;;;;;35.13;16.55;;;;;;;;;;6217026;23;20024;-78
2022/11/09 00:16:06;;;;;;;31.50;16.02;;;;;;;;;;6217236;23;20458;-79
2022/11/09 00:18:33;;;;;;;33.47;16.27;;;;;;;;;;6167118;23;20008;-78
2022/11/09 00:20:59;;;;;;;33.53;16.77;;;;;;;;;;6192416;23;20000;-77
2022/11/09 00:23:24;;;;;;;30.50;15.15;;;;;;;;;;6167383;23;20015;-78
2022/11/09 00:25:49;;;;;;;32.22;16.45;;;;;;;;;;6246512;23;20008;-76
2022/11/09 00:28:15;;;;;;;31.95;15.82;;;;;;;;;;6247002;23;20576;-79
2022/11/09 00:30:40;;;;;;;27.95;15.90;;;;;;;;;;6193761;23;20012;-79
2022/11/09 00:33:07;;;;;;;32.15;15.98;;;;;;;;;;6218581;23;20134;-78
2022/11/09 00:35:33;;;;;;;36.83;17.23;;;;;;;;;;6245663;23;19997;-78
2022/11/09 00:37:58;;;;;;;34.83;16.80;;;;;;;;;;6194017;23;20004;-78
2022/11/09 00:40:23;;;;;;;33.25;16.05;;;;;;;;;;6218783;23;20008;-77
2022/11/09 00:42:50;;;;;;;29.42;15.13;;;;;;;;;;6219463;23;20004;-77
2022/11/09 00:45:16;;;;;;;31.10;16.00;;;;;;;;;;6219226;23;20035;-79
2022/11/09 00:47:41;;;;;;;32.75;16.35;;;;;;;;;;6224163;23;20110;-78
2022/11/09 00:50:07;;;;;;;26.58;14.70;;;;;;;;;;6168710;23;20458;-78
2022/11/09 00:52:32;;;;;;;29.35;15.75;;;;;;;;;;6193824;23;20431;-78
2022/11/09 00:54:58;;;;;;;27.27;15.25;;;;;;;;;;6245760;23;20004;-77
2022/11/09 00:57:23;;;;;;;28.38;15.43;;;;;;;;;;6218772;23;20346;-77
2022/11/09 00:59:50;;;;;;;29.60;15.77;;;;;;;;;;6193752;23;20000;-77
2022/11/09 01:02:16;;;;;;;28.80;15.57;;;;;;;;;;6245381;23;20453;-78
2022/11/09 01:04:41;;;;;;;30.52;15.77;;;;;;;;;;6218738;23;20036;-76
2022/11/09 01:07:07;;;;;;;32.30;15.90;;;;;;;;;;6244629;23;20012;-78
2022/11/09 01:09:32;;;;;;;30.10;16.13;;;;;;;;;;6218393;23;20834;-78
2022/11/09 01:11:58;;;;;;;26.83;14.68;;;;;;;;;;6193640;23;20343;-78
2022/11/09 01:14:23;;;;;;;26.70;14.43;;;;;;;;;;6245333;23;20005;-78
2022/11/09 01:16:49;;;;;;;28.75;15.45;;;;;;;;;;6193864;23;20463;-78
2022/11/09 01:19:14;;;;;;;28.08;15.45;;;;;;;;;;6193452;23;20000;-77
2022/11/09 01:21:40;;;;;;;29.92;15.27;;;;;;;;;;6194045;23;20061;-78
2022/11/09 01:24:05;;;;;;;30.80;15.70;;;;;;;;;;6245666;23;20034;-78
2022/11/09 01:26:31;;;;;;;27.00;15.23;;;;;;;;;;6245670;23;20447;-78
2022/11/09 01:28:56;;;;;;;29.90;16.23;;;;;;;;;;6194347;23;20004;-78
2022/11/09 01:31:22;;;;;;;32.30;18.25;;;;;;;;;;6213022;23;20036;-78
2022/11/09 01:33:47;;;;;;;38.92;20.00;;;;;;;;;;6214801;23;20083;-79
2022/11/09 01:36:15;;;;;;;38.88;20.95;;;;;;;;;;6187291;23;20000;-78
2022/11/09 01:38:40;;;;;;;39.22;20.00;;;;;;;;;;6213714;23;20075;-79
2022/11/09 01:41:06;;;;;;;39.15;19.95;;;;;;;;;;6216420;23;20016;-78
2022/11/09 01:43:32;;;;;;;38.00;18.88;;;;;;;;;;6213052;23;20009;-78
2022/11/09 01:46:14;;;;;;;38.60;20.33;;;;;;;;;;6189336;23;19999;-78
2022/11/09 01:48:46;;;;;;;39.47;20.35;;;;;;;;;;6216357;23;20436;-78
2022/11/09 01:51:22;;;;;;;37.35;19.25;;;;;;;;;;6213434;23;20008;-78
2022/11/09 01:53:49;;;;;;;36.92;19.30;;;;;;;;;;6214202;23;20000;-78
2022/11/09 01:56:14;;;;;;;42.45;20.73;;;;;;;;;;6201830;23;20003;-79
2022/11/09 01:58:46;;;;;;;35.42;18.75;;;;;;;;;;6174580;23;20420;-77
2022/11/09 02:01:12;;;;;;;38.33;19.63;;;;;;;;;;6226762;23;20024;-77
2022/11/09 02:03:41;;;;;;;40.05;20.67;;;;;;;;;;6178748;23;20008;-78
2022/11/09 02:06:07;;;;;;;40.15;18.80;;;;;;;;;;6194791;23;20000;-78
2022/11/09 02:08:33;;;;;;;39.92;19.67;;;;;;;;;;6166088;23;20004;-78
2022/11/09 02:11:10;;;;;;;37.35;19.35;;;;;;;;;;6188702;23;20324;-78
2022/11/09 02:13:42;;;;;;;36.67;18.67;;;;;;;;;;6189291;23;20009;-78
2022/11/09 02:16:09;;;;;;;40.15;19.05;;;;;;;;;;6213320;23;20390;-78
2022/11/09 02:18:34;;;;;;;37.80;19.38;;;;;;;;;;6188951;23;20051;-78
2022/11/09 02:21:00;;;;;;;37.45;18.55;;;;;;;;;;6187867;23;20308;-78
2022/11/09 02:23:26;;;;;;;40.08;19.15;;;;;;;;;;6214460;23;20009;-78
2022/11/09 02:26:04;;;;;;;34.85;17.98;;;;;;;;;;6187904;23;19997;-78
2022/11/09 02:28:29;;;;;;;36.70;18.75;;;;;;;;;;6166435;23;20015;-79
2022/11/09 02:30:55;;;;;;;38.22;18.70;;;;;;;;;;6190306;23;20005;-78
2022/11/09 02:33:20;;;;;;;37.78;18.45;;;;;;;;;;6226232;23;20012;-79
2022/11/09 02:35:46;;;;;;;40.25;18.60;;;;;;;;;;6217321;23;19997;-77
2022/11/09 02:38:12;;;;;;;35.17;18.90;;;;;;;;;;6188495;23;20011;-78
2022/11/09 02:40:39;;;;;;;40.05;19.27;;;;;;;;;;6187685;23;20012;-78
2022/11/09 02:43:06;;;;;;;36.13;18.38;;;;;;;;;;6187568;23;20024;-78
2022/11/09 02:45:32;;;;;;;40.15;19.83;;;;;;;;;;6212726;23;20054;-78
2022/11/09 02:47:57;;;;;;;45.88;20.33;;;;;;;;;;6218968;23;20001;-78
2022/11/09 02:50:23;;;;;;;35.00;18.52;;;;;;;;;;6212527;23;20000;-78
2022/11/09 02:52:48;;;;;;;35.42;18.83;;;;;;;;;;6212573;23;20003;-78
2022/11/09 02:55:14;;;;;;;38.47;19.70;;;;;;;;;;6214631;23;20009;-78
2022/11/09 02:57:39;;;;;;;38.50;20.08;;;;;;;;;;6212689;23;20459;-78
2022/11/09 03:00:06;;;;;;;38.60;20.90;;;;;;;;;;6187490;23;20436;-78
2022/11/09 03:02:31;;;;;;;38.45;21.38;;;;;;;;;;6213850;23;20436;-78
2022/11/09 03:04:57;;;;;;;43.35;23.45;;;;;;;;;;6214248;23;20011;-79
2022/11/09 03:07:22;;;;;;;48.50;24.60;;;;;;;;;;6216754;23;20427;-78
2022/11/09 03:09:47;;;;;;;45.88;24.80;;;;;;;;;;6216263;23;20388;-78
2022/11/09 03:12:28;;;;;;;49.78;26.92;;;;;;;;;;6213550;23;20001;-79
2022/11/09 03:14:57;;;;;;;;;;;;;;;;;;6213352;23;20005;-79
2022/11/09 03:17:22;;;;;;;45.95;27.00;;;;;;;;;;6213965;23;19908;-78
2022/11/09 03:19:48;;;;;;;49.15;26.02;;;;;;;;;;6213705;23;20051;-78
2022/11/09 03:22:13;;;;;;;48.15;26.10;;;;;;;;;;6212308;23;20062;-78
2022/11/09 03:24:39;;;;;;;43.33;24.35;;;;;;;;;;6213884;23;20001;-78
2022/11/09 03:27:04;;;;;;;39.35;20.30;;;;;;;;;;6213494;23;20075;-78
2022/11/09 03:29:29;;;;;;;40.70;19.95;;;;;;;;;;6214910;23;20427;-78
2022/11/09 03:31:55;;;;;;;40.17;19.88;;;;;;;;;;6213569;23;20424;-78
2022/11/09 03:34:20;;;;;;;41.88;20.58;;;;;;;;;;6213811;23;20449;-78
2022/11/09 03:36:46;;;;;;;33.03;18.67;;;;;;;;;;6187062;23;20363;-78
2022/11/09 03:39:11;;;;;;;37.28;19.60;;;;;;;;;;6213625;23;20001;-79
2022/11/09 03:41:36;;;;;;;36.72;19.58;;;;;;;;;;6186726;23;20328;-78
2022/11/09 03:44:02;;;;;;;35.00;18.63;;;;;;;;;;6213512;23;20000;-78
2022/11/09 03:46:28;;;;;;;40.85;19.17;;;;;;;;;;6162476;23;20063;-78
2022/11/09 03:48:53;;;;;;;37.88;19.02;;;;;;;;;;6188635;23;20062;-78
2022/11/09 03:51:18;;;;;;;37.13;18.88;;;;;;;;;;6214961;23;20004;-78
2022/11/09 03:53:44;;;;;;;37.67;19.20;;;;;;;;;;6213545;23;20040;-78
2022/11/09 03:56:09;;;;;;;36.70;19.88;;;;;;;;;;6213548;23;20005;-78
2022/11/09 03:58:35;;;;;;;33.47;18.83;;;;;;;;;;6214756;23;20005;-79
2022/11/09 04:01:00;;;;;;;38.55;19.42;;;;;;;;;;6216784;23;20015;-78
2022/11/09 04:03:25;;;;;;;41.60;20.42;;;;;;;;;;6216889;23;20416;-78
2022/11/09 04:05:51;;;;;;;38.92;19.88;;;;;;;;;;6190229;23;20404;-78
2022/11/09 04:08:16;;;;;;;38.38;20.23;;;;;;;;;;6166502;23;20477;-78
2022/11/09 04:10:42;;;;;;;36.22;20.08;;;;;;;;;;6196290;23;20008;-78
2022/11/09 04:13:07;;;;;;;46.65;20.85;;;;;;;;;;6165596;23;19997;-77
2022/11/09 04:15:33;;;;;;;44.58;21.45;;;;;;;;;;6216381;23;20025;-79
2022/11/09 04:17:59;;;;;;;38.67;20.60;;;;;;;;;;6190482;23;20013;-79
2022/11/09 04:20:26;;;;;;;38.70;20.67;;;;;;;;;;6165456;23;20420;-79
2022/11/09 04:23:02;;;;;;;37.60;19.95;;;;;;;;;;6190538;23;20001;-78
2022/11/09 04:25:30;;;;;;;36.35;19.38;;;;;;;;;;6217125;23;20430;-78
2022/11/09 04:27:56;;;;;;;39.72;19.60;;;;;;;;;;6216793;23;20003;-79
2022/11/09 04:30:22;;;;;;;40.03;20.10;;;;;;;;;;6216932;23;20036;-78
2022/11/09 04:32:47;;;;;;;38.83;19.35;;;;;;;;;;6217399;23;20059;-78
2022/11/09 04:35:13;;;;;;;39.30;19.48;;;;;;;;;;6190281;23;20000;-79
2022/11/09 04:37:38;;;;;;;38.58;20.60;;;;;;;;;;6216333;23;20086;-78
2022/11/09 04:40:04;;;;;;;40.10;20.17;;;;;;;;;;6190047;23;20016;-78
2022/11/09 04:42:29;;;;;;;39.85;21.20;;;;;;;;;;6216579;23;20001;-78
2022/11/09 04:44:55;;;;;;;40.67;20.80;;;;;;;;;;6190180;23;20067;-79
2022/11/09 04:47:20;;;;;;;38.75;20.17;;;;;;;;;;6190467;23;20001;-79
2022/11/09 04:49:46;;;;;;;41.15;20.23;;;;;;;;;;6168439;23;20012;-78
2022/11/09 04:52:11;;;;;;;42.20;21.25;;;;;;;;;;6220422;23;20001;-78
2022/11/09 04:54:36;;;;;;;41.65;21.33;;;;;;;;;;6190499;23;20009;-78
2022/11/09 04:57:02;;;;;;;39.00;19.80;;;;;;;;;;6216552;23;20000;-79
2022/11/09 04:59:27;;;;;;;50.67;27.60;;;;;;;;;;6190113;23;20011;-79
2022/11/09 05:01:53;;;;;;;49.45;23.58;;;;;;;;;;6216613;23;20012;-78
2022/11/09 05:04:18;;;;;;;42.83;20.35;;;;;;;;;;6216923;23;20004;-79
2022/11/09 05:06:44;;;;;;;39.10;20.27;;;;;;;;;;6217001;23;20001;-79
2022/11/09 05:09:09;;;;;;;43.42;21.38;;;;;;;;;;6165848;23;20390;-78
2022/11/09 05:11:35;;;;;;;43.63;22.05;;;;;;;;;;6219765;23;20005;-79
2022/11/09 05:14:00;;;;;;;44.78;21.73;;;;;;;;;;6166132;23;20008;-79
2022/11/09 05:16:27;;;;;;;38.03;20.27;;;;;;;;;;6215445;23;20415;-80
2022/11/09 05:18:52;;;;;;;50.08;23.70;;;;;;;;;;6187744;23;20007;-79
2022/11/09 05:21:18;;;;;;;49.42;23.33;;;;;;;;;;6214451;23;20008;-79
2022/11/09 05:23:58;;;;;;;41.08;20.73;;;;;;;;;;6214724;23;20004;-79
2022/11/09 05:26:34;;;;;;;;;;;;;;;;;;6170328;23;20416;-79
2022/11/09 05:29:02;;;;;;;35.97;17.58;;;;;;;;;;6214829;23;19912;-77
2022/11/09 05:31:27;;;;;;;36.35;17.77;;;;;;;;;;6189031;23;20066;-78
2022/11/09 05:33:53;;;;;;;40.25;18.65;;;;;;;;;;6245209;23;20497;-79
2022/11/09 05:36:19;;;;;;;35.13;18.75;;;;;;;;;;6217833;23;20072;-79
2022/11/09 05:38:44;;;;;;;40.72;19.70;;;;;;;;;;6218191;23;20000;-79
2022/11/09 05:41:10;;;;;;;38.70;20.00;;;;;;;;;;6218600;23;20027;-79
2022/11/09 05:43:36;;;;;;;41.95;20.90;;;;;;;;;;6194422;23;20059;-79
2022/11/09 05:46:01;;;;;;;38.50;20.08;;;;;;;;;;6195015;23;20083;-80
2022/11/09 05:48:37;;;;;;;45.33;21.13;;;;;;;;;;6252967;23;20035;-78
2022/11/09 05:51:07;;;;;;;43.35;21.30;;;;;;;;;;6248017;23;20068;-79
2022/11/09 05:53:37;;;;;;;46.65;21.58;;;;;;;;;;6225482;23;20008;-79
2022/11/09 05:56:04;;;;;;;46.10;21.10;;;;;;;;;;6193337;23;20004;-78
2022/11/09 05:58:40;;;;;;;48.55;22.67;;;;;;;;;;6243157;23;20430;-79
2022/11/09 06:01:11;;;;;;;49.58;24.10;;;;;;;;;;6222048;23;20019;-82
2022/11/09 06:04:27;;;;;;;50.10;24.17;;;;;;;;;;6202080;23;20604;-80
2022/11/09 06:07:17;;;;;;;53.38;25.10;;;;;;;;;;6120891;23;20690;-82
2022/11/09 06:09:43;;;;;;;52.40;25.75;;;;;;;;;;6118721;23;20010;-82
2022/11/09 06:12:08;;;;;;;57.53;27.38;;;;;;;;;;6243491;23;20008;-80
2022/11/09 06:14:34;;;;;;;61.58;26.98;;;;;;;;;;6214779;23;20000;-81
2022/11/09 06:17:03;;;;;;;65.03;29.00;;;;;;;;;;6190915;23;20004;-79
2022/11/09 06:19:28;;;;;;;60.50;28.33;;;;;;;;;;6191567;23;20008;-82
2022/11/09 06:21:54;;;;;;;60.70;29.10;;;;;;;;;;6188964;23;20039;-82
2022/11/09 06:24:24;;;;;;;58.10;28.30;;;;;;;;;;6191967;23;20008;-80
2022/11/09 06:26:52;;;;;;;61.47;29.83;;;;;;;;;;6218261;23;20064;-82
2022/11/09 06:29:18;;;;;;;59.55;29.95;;;;;;;;;;6223043;23;20004;-82
2022/11/09 06:31:45;;;;;;;58.03;29.77;;;;;;;;;;6193020;23;20015;-81
2022/11/09 06:34:11;;;;;;;101.15;31.40;;;;;;;;;;6188700;23;20008;-81
2022/11/09 06:36:37;;;;;;;92.20;32.80;;;;;;;;;;6214606;23;20008;-82
2022/11/09 06:39:03;;;;;;;67.00;31.92;;;;;;;;;;6164734;23;20392;-80
2022/11/09 06:41:28;;;;;;;66.85;32.05;;;;;;;;;;6216374;23;20005;-78
2022/11/09 06:43:54;;;;;;;73.15;34.10;;;;;;;;;;6214860;23;20005;-82
2022/11/09 06:46:27;;;;;;;83.03;38.67;;;;;;;;;;6215257;23;20023;-84
2022/11/09 06:48:53;;;;;;;80.13;37.58;;;;;;;;;;6195106;23;20011;-81
2022/11/09 06:51:19;;;;;;;91.97;42.33;;;;;;;;;;6218735;23;20005;-80
2022/11/09 06:53:48;;;;;;;87.47;42.42;;;;;;;;;;6222520;23;20024;-80
2022/11/09 06:56:14;;;;;;;95.35;44.65;;;;;;;;;;6186991;23;20075;-83
2022/11/09 06:58:44;;;;;;;89.30;43.28;;;;;;;;;;6218083;23;20027;-82
2022/11/09 07:01:11;;;;;;;84.53;42.70;;;;;;;;;;6218357;23;20032;-82
2022/11/09 07:03:36;;;;;;;95.50;43.42;;;;;;;;;;6216434;23;20469;-83
2022/11/09 07:06:11;;;;;;;82.35;41.95;;;;;;;;;;6216094;23;20062;-80
2022/11/09 07:08:40;;;;;;;82.93;40.28;;;;;;;;;;6187084;23;20016;-82
2022/11/09 07:11:10;;;;;;;82.97;40.77;;;;;;;;;;6188548;23;20050;-82
2022/11/09 07:13:37;;;;;;;83.68;40.88;;;;;;;;;;6208018;23;20506;-82
2022/11/09 07:16:03;;;;;;;84.45;41.05;;;;;;;;;;6184439;23;20040;-82
2022/11/09 07:18:29;;;;;;;77.47;39.45;;;;;;;;;;6209357;23;20039;-82
2022/11/09 07:20:55;;;;;;;77.95;39.42;;;;;;;;;;6210057;23;20012;-83
2022/11/09 07:23:20;;;;;;;80.68;40.40;;;;;;;;;;6213710;23;20011;-81
2022/11/09 07:25:46;;;;;;;86.82;41.67;;;;;;;;;;6213535;23;20036;-84
2022/11/09 07:28:11;;;;;;;77.93;40.38;;;;;;;;;;6211943;23;20130;-83
2022/11/09 07:30:37;;;;;;;78.85;38.45;;;;;;;;;;6215805;23;20008;-82
2022/11/09 07:33:04;;;;;;;80.07;39.60;;;;;;;;;;6165846;23;20008;-82
2022/11/09 07:35:29;;;;;;;73.15;37.92;;;;;;;;;;6187337;23;20004;-82
2022/11/09 07:37:59;;;;;;;80.05;41.25;;;;;;;;;;6186962;23;20032;-83
2022/11/09 07:40:25;;;;;;;77.60;38.83;;;;;;;;;;6162685;23;20004;-81
2022/11/09 07:42:51;;;;;;;73.55;37.67;;;;;;;;;;6189107;23;20004;-83
2022/11/09 07:45:18;;;;;;;74.97;37.58;;;;;;;;;;6191024;23;20001;-80
2022/11/09 07:48:10;;;;;;;78.32;37.58;;;;;;;;;;6140299;23;20103;-82
2022/11/09 07:50:37;;;;;;;81.22;38.33;;;;;;;;;;6194114;23;20005;-82
2022/11/09 07:53:08;;;;;;;76.63;36.45;;;;;;;;;;6195500;23;20389;-82
2022/11/09 07:55:46;;;;;;;76.00;36.85;;;;;;;;;;6185523;23;20059;-84
2022/11/09 07:58:13;;;;;;;71.35;36.35;;;;;;;;;;6138502;23;20023;-82
2022/11/09 08:00:39;;;;;;;92.80;36.95;;;;;;;;;;6186345;23;20009;-83
2022/11/09 08:03:05;;;;;;;65.78;34.78;;;;;;;;;;6162622;23;20004;-83
2022/11/09 08:05:31;;;;;;;72.43;34.80;;;;;;;;;;6215290;23;20431;-83
2022/11/09 08:07:57;;;;;;;70.20;33.75;;;;;;;;;;6222489;23;20009;-83
2022/11/09 08:10:23;;;;;;;66.60;33.80;;;;;;;;;;6167659;23;20440;-82
2022/11/09 08:12:56;;;;;;;76.82;34.72;;;;;;;;;;6165992;23;20005;-84
2022/11/09 08:15:21;;;;;;;68.38;33.00;;;;;;;;;;6192370;23;20447;-83
2022/11/09 08:17:47;;;;;;;66.40;32.60;;;;;;;;;;6221219;23;20048;-83
2022/11/09 08:20:12;;;;;;;63.15;33.38;;;;;;;;;;6217165;23;20005;-83
2022/11/09 08:22:41;;;;;;;63.13;32.47;;;;;;;;;;6139331;23;20008;-83
2022/11/09 08:25:08;;;;;;;64.85;32.58;;;;;;;;;;6188249;23;20000;-80
2022/11/09 08:27:38;;;;;;;63.40;33.45;;;;;;;;;;6216572;23;20004;-82
2022/11/09 08:30:15;;;;;;;68.10;33.90;;;;;;;;;;6145617;23;20087;-83
2022/11/09 08:32:42;;;;;;;70.10;35.53;;;;;;;;;;6220004;23;20004;-83
2022/11/09 08:35:11;;;;;;;65.38;35.10;;;;;;;;;;6187784;23;20000;-83
2022/11/09 08:37:37;;;;;;;65.78;35.17;;;;;;;;;;6165448;23;20001;-84
2022/11/09 08:40:03;;;;;;;70.53;34.03;;;;;;;;;;6167480;23;20039;-81
2022/11/09 08:42:28;;;;;;;64.80;34.40;;;;;;;;;;6184763;23;20001;-80
2022/11/09 08:44:54;;;;;;;77.45;35.17;;;;;;;;;;6213621;23;20008;-80
2022/11/09 08:47:19;;;;;;;71.32;34.95;;;;;;;;;;6215851;23;20364;-80
2022/11/09 08:49:46;;;;;;;67.38;35.75;;;;;;;;;;6186136;23;20087;-81
2022/11/09 08:52:12;;;;;;;69.57;35.35;;;;;;;;;;6191016;23;20007;-79
2022/11/09 08:54:41;;;;;;;68.50;34.10;;;;;;;;;;6217579;23;20273;-80
2022/11/09 08:57:06;;;;;;;70.32;34.25;;;;;;;;;;6217805;23;20016;-81
2022/11/09 08:59:32;;;;;;;75.43;35.63;;;;;;;;;;6211971;23;20363;-78
2022/11/09 09:01:57;;;;;;;69.78;34.65;;;;;;;;;;6185666;23;20091;-81
2022/11/09 09:04:23;;;;;;;70.07;34.60;;;;;;;;;;6185764;23;20012;-81
2022/11/09 09:06:48;;;;;;;64.68;35.80;;;;;;;;;;6196162;23;20000;-80
2022/11/09 09:09:14;;;;;;;70.53;36.13;;;;;;;;;;6161690;23;20312;-83
2022/11/09 09:11:39;;;;;;;67.85;36.42;;;;;;;;;;6214488;23;20004;-79
2022/11/09 09:14:05;;;;;;;77.18;37.00;;;;;;;;;;6192288;23;19997;-80
2022/11/09 09:16:31;;;;;;;72.45;36.50;;;;;;;;;;6190970;23;20025;-79
2022/11/09 09:18:57;;;;;;;74.50;35.70;;;;;;;;;;6171776;23;20391;-79
2022/11/09 09:21:22;;;;;;;78.70;37.20;;;;;;;;;;6186431;23;20340;-79
2022/11/09 09:23:48;;;;;;;68.30;35.80;;;;;;;;;;6214589;23;20007;-79
2022/11/09 09:26:14;;;;;;;69.53;35.90;;;;;;;;;;6187553;23;20001;-77
2022/11/09 09:28:39;;;;;;;68.30;34.55;;;;;;;;;;6212519;23;20206;-79
2022/11/09 09:31:05;;;;;;;80.95;37.00;;;;;;;;;;6213613;23;20012;-80
2022/11/09 09:33:30;;;;;;;67.05;35.67;;;;;;;;;;6162988;23;20032;-79
2022/11/09 09:35:56;;;;;;;72.45;35.28;;;;;;;;;;6193531;23;20000;-80
2022/11/09 09:38:22;;;;;;;67.38;35.22;;;;;;;;;;6166745;23;20012;-79
2022/11/09 09:41:01;;;;;;;63.85;34.97;;;;;;;;;;6192356;23;20005;-80
2022/11/09 09:43:43;;;;;;;63.65;35.65;;;;;;;;;;6219366;23;20005;-80
2022/11/09 09:46:15;;;;;;;71.35;35.10;;;;;;;;;;6192407;23;20023;-79
2022/11/09 09:49:00;;;;;;;65.53;35.38;;;;;;;;;;6168065;23;20004;-78
2022/11/09 09:52:32;;;;;;;64.85;34.08;;;;;;;;;;6162937;23;19993;-78
2022/11/09 09:55:14;;;;;;;76.88;35.90;;;;;;;;;;6090354;23;20013;-86
2022/11/09 09:57:43;;;;;;;67.07;35.97;;;;;;;;;;6192424;23;20472;-81
2022/11/09 10:00:15;;;;;;;67.28;37.60;;;;;;;;;;6137772;23;20136;-77
2022/11/09 10:02:41;;;;;;;69.32;36.22;;;;;;;;;;6164314;23;20420;-77
2022/11/09 10:05:08;;;;;;;67.88;36.05;;;;;;;;;;6188975;23;20035;-78
2022/11/09 10:07:39;;;;;;;65.00;36.65;;;;;;;;;;6188734;23;20443;-78
2022/11/09 10:10:27;;;;;;;65.55;35.65;;;;;;;;;;6211314;23;20004;-78
2022/11/09 10:13:11;;;;;;;74.38;37.83;;;;;;;;;;6187534;23;20154;-78
2022/11/09 10:15:49;;;;;;;72.93;38.72;;;;;;;;;;6213060;23;20036;-78
2022/11/09 10:18:36;;;;;;;74.05;36.90;;;;;;;;;;6212824;23;20004;-78
2022/11/09 10:21:20;;;;;;;66.18;38.83;;;;;;;;;;6162152;23;20030;-78
2022/11/09 10:23:49;;;;;;;78.68;41.15;;;;;;;;;;6217931;23;20004;-80
2022/11/09 10:26:25;;;;;;;75.07;41.22;;;;;;;;;;6194983;23;20032;-75
2022/11/09 10:29:00;;;;;;;79.68;41.08;;;;;;;;;;6190817;23;20020;-79
2022/11/09 10:31:25;;;;;;;90.05;43.60;;;;;;;;;;6192310;23;20038;-78
2022/11/09 10:34:02;;;;;;;82.20;42.33;;;;;;;;;;6192314;23;20083;-78
2022/11/09 10:36:31;;;;;;;85.88;42.65;;;;;;;;;;6191774;23;20016;-78
2022/11/09 10:38:59;;;;;;;88.47;42.67;;;;;;;;;;6191837;23;20103;-77
2022/11/09 10:41:45;;;;;;;80.05;41.75;;;;;;;;;;6167131;23;20004;-79
2022/11/09 10:44:15;;;;;;;82.53;42.85;;;;;;;;;;6166234;23;20428;-77
2022/11/09 10:47:01;;;;;;;86.53;43.85;;;;;;;;;;6212906;23;20202;-78
2022/11/09 10:49:27;;;;;;;84.15;43.42;;;;;;;;;;6191927;23;20018;-77
2022/11/09 10:51:52;;;;;;;80.00;43.25;;;;;;;;;;6212219;23;20480;-77
2022/11/09 10:54:22;;;;;;;82.65;43.42;;;;;;;;;;6213994;23;19992;-77
2022/11/09 10:56:50;;;;;;;82.15;43.90;;;;;;;;;;6214233;23;20005;-77
2022/11/09 10:59:56;;;;;;;75.72;42.70;;;;;;;;;;6213321;23;20024;-77
2022/11/09 11:02:25;;;;;;;77.38;43.40;;;;;;;;;;6166331;23;19997;-76
2022/11/09 11:05:11;;;;;;;74.10;40.92;;;;;;;;;;6214691;23;20054;-77
2022/11/09 11:07:37;;;;;;;81.70;41.97;;;;;;;;;;6210273;23;20009;-75
2022/11/09 11:10:14;;;;;;;77.68;42.63;;;;;;;;;;6158638;23;20015;-76
2022/11/09 11:12:44;;;;;;;77.47;41.63;;;;;;;;;;6210854;23;20079;-75
2022/11/09 11:15:26;;;;;;;82.57;42.40;;;;;;;;;;6163126;23;20005;-78
2022/11/09 11:17:59;;;;;;;79.00;42.25;;;;;;;;;;6187330;23;20000;-76
2022/11/09 11:20:24;;;;;;;77.80;42.38;;;;;;;;;;6186551;23;20008;-77
2022/11/09 11:22:50;;;;;;;79.63;43.35;;;;;;;;;;6189061;23;20325;-78
2022/11/09 11:25:20;;;;;;;76.00;40.72;;;;;;;;;;6162068;23;20415;-78
2022/11/09 11:27:49;;;;;;;82.93;41.90;;;;;;;;;;6163123;23;20011;-76
2022/11/09 11:30:21;;;;;;;88.17;40.40;;;;;;;;;;6137850;23;20063;-78
2022/11/09 11:32:46;;;;;;;73.45;37.83;;;;;;;;;;6163351;23;20015;-76
2022/11/09 11:35:34;;;;;;;73.78;39.58;;;;;;;;;;6188334;23;20000;-79
2022/11/09 11:38:21;;;;;;;75.55;39.35;;;;;;;;;;6196466;23;20036;-79
2022/11/09 11:41:13;;;;;;;69.00;37.92;;;;;;;;;;6213937;23;20004;-79
2022/11/09 11:44:02;;;;;;;75.03;39.65;;;;;;;;;;6213163;23;20054;-81
2022/11/09 11:46:57;;;;;;;69.95;36.78;;;;;;;;;;6141163;23;20328;-78
2022/11/09 11:49:48;;;;;;;76.00;38.60;;;;;;;;;;6134101;23;20037;-78
2022/11/09 11:52:16;;;;;;;68.22;37.25;;;;;;;;;;6166005;23;20066;-77
2022/11/09 11:55:03;;;;;;;68.60;37.00;;;;;;;;;;6188724;23;20024;-80
2022/11/09 11:57:33;;;;;;;72.72;36.50;;;;;;;;;;6187273;23;20027;-80
2022/11/09 12:00:07;;;;;;;75.00;37.72;;;;;;;;;;6214171;23;20456;-78
2022/11/09 12:02:44;;;;;;;69.72;36.70;;;;;;;;;;6219606;23;20001;-78
2022/11/09 12:05:34;;;;;;;70.35;37.55;;;;;;;;;;6214000;23;20001;-79
2022/11/09 12:08:21;;;;;;;69.57;37.30;;;;;;;;;;6187863;23;20005;-78
2022/11/09 12:10:46;;;;;;;69.28;37.38;;;;;;;;;;6188679;23;20043;-78
2022/11/09 12:13:45;;;;;;;88.05;48.28;;;;;;;;;;6217678;23;20001;-79
2022/11/09 12:16:28;;;;;;;70.70;39.20;;;;;;;;;;6216720;23;20000;-78
2022/11/09 12:19:29;;;;;;;68.20;37.17;;;;;;;;;;6166210;23;20335;-78
2022/11/09 12:22:17;;;;;;;66.35;36.58;;;;;;;;;;6219209;23;20090;-78
2022/11/09 12:24:52;;;;;;;70.85;37.95;;;;;;;;;;6228376;23;20017;-77
2022/11/09 12:27:27;;;;;;;72.82;37.08;;;;;;;;;;6197904;23;20005;-78
2022/11/09 12:30:11;;;;;;;71.60;38.20;;;;;;;;;;6222248;23;20028;-78
2022/11/09 12:33:03;;;;;;;66.97;36.70;;;;;;;;;;6192530;23;20074;-77
2022/11/09 12:35:36;;;;;;;73.32;37.63;;;;;;;;;;6214752;23;20015;-79
2022/11/09 12:38:03;;;;;;;72.18;36.20;;;;;;;;;;6184104;23;20031;-79
2022/11/09 12:40:32;;;;;;;68.50;37.35;;;;;;;;;;6191076;23;20019;-79
2022/11/09 12:43:21;;;;;;;73.75;38.38;;;;;;;;;;6162365;23;20012;-78
2022/11/09 12:45:47;;;;;;;84.53;39.40;;;;;;;;;;6164756;23;20005;-79
2022/11/09 12:48:31;;;;;;;71.82;37.83;;;;;;;;;;6188055;23;20379;-80
2022/11/09 12:50:57;;;;;;;79.88;37.47;;;;;;;;;;6211845;23;20138;-80
2022/11/09 12:53:27;;;;;;;75.15;39.38;;;;;;;;;;6163442;23;20028;-80
2022/11/09 12:56:16;;;;;;;78.72;38.95;;;;;;;;;;6214416;23;20363;-80
2022/11/09 12:58:41;;;;;;;69.97;36.50;;;;;;;;;;6161613;23;20213;-77
2022/11/09 13:01:34;;;;;;;83.43;37.72;;;;;;;;;;6163686;23;20343;-79
2022/11/09 13:04:01;;;;;;;68.28;37.20;;;;;;;;;;6109087;23;20096;-78
2022/11/09 13:06:31;;;;;;;79.65;38.72;;;;;;;;;;6186654;23;20000;-79
2022/11/09 13:08:58;;;;;;;76.35;37.63;;;;;;;;;;6162237;23;20005;-79
2022/11/09 13:11:40;;;;;;;80.22;38.05;;;;;;;;;;6214135;23;20312;-80
2022/11/09 13:14:30;;;;;;;75.13;38.78;;;;;;;;;;6163013;23;20115;-78
2022/11/09 13:17:19;;;;;;;;;;;;;;;;;;6213404;23;20004;-80
2022/11/09 13:19:44;;;;;;;72.65;38.15;;;;;;;;;;6208493;23;20006;-79
2022/11/09 13:22:13;;;;;;;73.03;36.30;;;;;;;;;;6212491;23;20001;-78
2022/11/09 13:24:54;;;;;;;71.53;35.85;;;;;;;;;;6213092;23;20452;-78
2022/11/09 13:27:32;;;;;;;71.72;37.50;;;;;;;;;;6214246;23;20001;-79
2022/11/09 13:29:57;;;;;;;73.47;36.72;;;;;;;;;;6212751;23;20005;-80
2022/11/09 13:32:32;;;;;;;70.93;36.30;;;;;;;;;;6185064;23;20043;-79
2022/11/09 13:34:58;;;;;;;70.10;36.42;;;;;;;;;;6188656;23;20039;-79
2022/11/09 13:37:42;;;;;;;71.55;37.08;;;;;;;;;;6212509;23;20008;-79
2022/11/09 13:40:29;;;;;;;79.72;37.00;;;;;;;;;;6186667;23;20013;-80
2022/11/09 13:43:11;;;;;;;70.55;37.67;;;;;;;;;;6212767;23;20024;-79
2022/11/09 13:45:41;;;;;;;69.72;36.00;;;;;;;;;;6166417;23;20028;-79
2022/11/09 13:48:28;;;;;;;65.90;35.42;;;;;;;;;;6189092;23;20020;-80
2022/11/09 13:50:55;;;;;;;68.35;37.00;;;;;;;;;;6189906;23;20173;-79
2022/11/09 13:53:36;;;;;;;72.32;36.65;;;;;;;;;;6214825;23;20024;-80
2022/11/09 13:56:34;;;;;;;68.10;35.20;;;;;;;;;;6213747;23;20012;-80
2022/11/09 13:59:10;;;;;;;72.50;36.17;;;;;;;;;;6151633;23;20048;-80
2022/11/09 14:01:45;;;;;;;70.55;36.08;;;;;;;;;;6188714;23;20008;-80
2022/11/09 14:04:28;;;;;;;72.60;37.17;;;;;;;;;;6212935;23;20001;-80
2022/11/09 14:07:10;;;;;;;71.38;34.88;;;;;;;;;;6188827;23;20005;-80
2022/11/09 14:10:13;;;;;;;58.58;33.05;;;;;;;;;;6188170;23;20001;-79
2022/11/09 14:12:53;;;;;;;70.53;35.13;;;;;;;;;;6214353;23;20005;-80
2022/11/09 14:15:19;;;;;;;73.97;35.33;;;;;;;;;;6187957;23;20001;-79
2022/11/09 14:18:21;;;;;;;64.68;34.40;;;;;;;;;;6214089;23;20486;-78
2022/11/09 14:21:04;;;;;;;74.88;35.08;;;;;;;;;;6196611;23;20012;-80
2022/11/09 14:23:30;;;;;;;68.00;34.55;;;;;;;;;;6188060;23;20341;-80
2022/11/09 14:25:56;;;;;;;73.55;35.22;;;;;;;;;;6187711;23;20441;-80
2022/11/09 14:28:29;;;;;;;73.00;35.88;;;;;;;;;;6163105;23;20004;-79
2022/11/09 14:30:54;;;;;;;71.68;35.67;;;;;;;;;;6189112;23;20035;-80
2022/11/09 14:33:25;;;;;;;73.55;36.63;;;;;;;;;;6187529;23;20005;-79
2022/11/09 14:35:51;;;;;;;73.75;34.40;;;;;;;;;;6188245;23;20313;-79
2022/11/09 14:38:41;;;;;;;68.53;35.38;;;;;;;;;;6164569;23;20001;-79